Time;durP1;ratioP1;P1;durP2;ratioP2;P2;SDS_P1;SDS_P2;PMS_P1;PMS_P2;Temp;Humidity;BMP_temperature;BMP_pressure;BME280_temperature;BME280_humidity;BME280_pressure;Samples;Min_cycle;Max_cycle;Signal;HPM_P1;HPM_P2
2024/01/19 00:01:03;;;;;;;70.20;42.20;;;;;;;-1.39;85.86;98901.35;103376;1256;96418;-72
2024/01/19 00:03:42;;;;;;;69.20;39.80;;;;;;;-1.44;86.13;98904.44;103410;1254;139842;-73
2024/01/19 00:06:09;;;;;;;68.30;39.00;;;;;;;-1.48;86.40;98905.14;103359;1254;108271;-72
2024/01/19 00:08:36;;;;;;;66.40;38.70;;;;;;;-1.46;86.69;98915.02;104810;1253;94513;-72
2024/01/19 00:11:03;;;;;;;67.20;40.00;;;;;;;-1.40;86.97;98927.27;104742;1251;137657;-72
2024/01/19 00:13:30;;;;;;;71.70;43.00;;;;;;;-1.33;87.07;98930.46;104797;1251;94660;-72
2024/01/19 00:15:57;;;;;;;69.30;42.90;;;;;;;-1.29;86.92;98933.67;104726;1254;137542;-72
2024/01/19 00:18:26;;;;;;;73.40;44.30;;;;;;;-1.24;86.87;98937.76;104833;1251;107109;-72
2024/01/19 00:20:53;;;;;;;72.10;43.60;;;;;;;-1.23;86.56;98941.52;104063;1253;1002900;-72
2024/01/19 00:23:20;;;;;;;74.70;43.50;;;;;;;-1.24;86.40;98952.42;104675;1256;138182;-72
2024/01/19 00:25:47;;;;;;;81.20;45.40;;;;;;;-1.28;86.11;98955.84;104836;1253;94284;-72
2024/01/19 00:28:14;;;;;;;70.90;41.10;;;;;;;-1.35;86.01;98960.33;103972;1253;1002529;-73
2024/01/19 00:30:41;;;;;;;72.30;41.30;;;;;;;-1.41;86.19;98958.48;104796;1252;106796;-73
2024/01/19 00:33:08;;;;;;;72.20;40.80;;;;;;;-1.42;86.20;98964.29;104102;1252;1002245;-73
2024/01/19 00:35:35;;;;;;;66.00;38.60;;;;;;;-1.44;86.05;98966.83;103784;1254;1002447;-73
2024/01/19 00:38:01;;;;;;;64.40;37.40;;;;;;;-1.48;85.98;98984.23;104811;1256;94752;-74
2024/01/19 00:40:28;;;;;;;64.60;40.60;;;;;;;-1.48;86.13;98990.88;104761;1253;138120;-72
2024/01/19 00:42:56;;;;;;;68.20;41.20;;;;;;;-1.45;86.18;98994.45;104007;1255;1002205;-72
2024/01/19 00:45:23;;;;;;;58.60;35.70;;;;;;;-1.45;86.12;98993.42;104768;1253;138712;-71
2024/01/19 00:47:50;;;;;;;53.30;34.80;;;;;;;-1.51;85.71;98998.07;104807;1252;108331;-73
2024/01/19 00:50:16;;;;;;;60.00;35.70;;;;;;;-1.57;85.65;99001.33;104803;1254;94580;-72
2024/01/19 00:52:43;;;;;;;60.20;36.90;;;;;;;-1.65;85.61;99009.86;104239;1253;137295;-73
2024/01/19 00:55:11;;;;;;;59.90;35.90;;;;;;;-1.74;85.74;99014.34;103397;1256;107133;-71
2024/01/19 00:57:39;;;;;;;56.30;33.30;;;;;;;-1.86;85.91;99021.16;102668;1256;1002590;-71
2024/01/19 01:00:07;;;;;;;53.00;32.10;;;;;;;-1.92;86.04;99020.50;103480;1256;108210;-73
2024/01/19 01:02:34;;;;;;;52.40;30.70;;;;;;;-1.96;86.30;99026.82;104704;1254;119905;-71
2024/01/19 01:05:01;;;;;;;53.80;32.00;;;;;;;-1.97;86.60;99032.61;103483;1256;138225;-72
2024/01/19 01:07:28;;;;;;;56.60;31.60;;;;;;;-1.96;86.81;99038.58;103447;1255;107585;-72
2024/01/19 01:09:54;;;;;;;55.00;32.70;;;;;;;-1.92;86.86;99052.88;103409;1256;138885;-72
2024/01/19 01:12:21;;;;;;;55.80;32.70;;;;;;;-1.90;86.80;99052.52;103478;1257;106937;-72
2024/01/19 01:14:48;;;;;;;51.90;32.30;;;;;;;-1.89;86.81;99053.38;103487;1256;96334;-74
2024/01/19 01:17:16;;;;;;;53.90;32.80;;;;;;;-1.90;86.55;99052.52;103413;1257;137487;-72
2024/01/19 01:19:42;;;;;;;54.80;34.50;;;;;;;-1.93;86.84;99055.08;103519;1254;107722;-72
2024/01/19 01:22:12;;;;;;;60.90;36.00;;;;;;;-1.93;86.71;99065.14;103330;1257;137607;-72
2024/01/19 01:24:40;;;;;;;59.80;35.10;;;;;;;-1.97;86.72;99063.27;102668;1256;1003579;-72
2024/01/19 01:27:07;;;;;;;58.80;32.70;;;;;;;-2.01;86.87;99069.55;103377;1257;96471;-71
2024/01/19 01:29:34;;;;;;;50.80;31.40;;;;;;;-2.00;87.10;99073.81;103269;1254;138107;-73
2024/01/19 01:32:01;;;;;;;53.90;31.40;;;;;;;-2.00;86.98;99072.27;104814;1257;107830;-72
2024/01/19 01:34:27;;;;;;;53.20;30.80;;;;;;;-2.00;86.89;99073.80;104706;1257;138090;-73
2024/01/19 01:36:54;;;;;;;50.60;30.00;;;;;;;-1.97;87.03;99075.02;104773;1256;107315;-72
2024/01/19 01:39:21;;;;;;;49.30;30.50;;;;;;;-1.95;86.90;99077.92;104798;1256;94534;-72
2024/01/19 01:41:48;;;;;;;51.60;31.20;;;;;;;-1.94;87.06;99077.23;104813;1254;110264;-73
2024/01/19 01:44:15;;;;;;;54.90;32.90;;;;;;;-1.92;87.18;99083.02;104824;1254;106792;-73
2024/01/19 01:46:42;;;;;;;54.90;32.80;;;;;;;-1.91;86.88;99083.53;104756;1254;138502;-73
2024/01/19 01:49:14;;;;;;;57.90;34.40;;;;;;;-1.90;87.01;99092.22;104793;1254;106965;-72
2024/01/19 01:51:42;;;;;;;57.10;33.70;;;;;;;-1.91;87.29;99095.80;103948;1254;1002834;-72
2024/01/19 01:54:09;;;;;;;51.80;30.00;;;;;;;-1.88;87.13;99101.92;104840;1254;109665;-73
2024/01/19 01:56:36;;;;;;;42.30;25.80;;;;;;;-1.89;86.87;99108.56;104737;1254;108372;-72
2024/01/19 01:59:03;;;;;;;43.90;25.20;;;;;;;-1.93;86.49;99116.92;104724;1254;139539;-73
2024/01/19 02:01:30;;;;;;;43.80;25.40;;;;;;;-1.98;86.51;99123.89;104767;1251;107809;-72
2024/01/19 02:03:58;;;;;;;38.10;22.70;;;;;;;-1.97;86.42;99125.79;104606;1257;138335;-73
2024/01/19 02:06:25;;;;;;;36.60;22.30;;;;;;;-1.99;85.67;99134.97;104873;1254;110410;-72
2024/01/19 02:08:53;;;;;;;34.10;22.30;;;;;;;-2.05;85.51;99138.88;104793;1252;108206;-72
2024/01/19 02:11:20;;;;;;;37.00;23.40;;;;;;;-2.08;85.31;99146.55;104754;1256;137667;-72
2024/01/19 02:13:46;;;;;;;38.90;23.10;;;;;;;-2.12;85.38;99152.02;104834;1254;106865;-71
2024/01/19 02:16:13;;;;;;;40.40;22.40;;;;;;;-2.21;84.88;99156.06;104745;1254;137451;-72
2024/01/19 02:18:40;;;;;;;39.70;24.30;;;;;;;-2.30;84.86;99157.09;104901;1253;109138;-71
2024/01/19 02:21:07;;;;;;;40.80;22.70;;;;;;;-2.41;85.05;99157.39;104068;1253;1002377;-73
2024/01/19 02:23:42;;;;;;;36.40;21.50;;;;;;;-2.46;85.21;99158.91;104753;1257;137723;-72
2024/01/19 02:26:10;;;;;;;42.40;23.20;;;;;;;-2.48;85.21;99162.65;104807;1254;108099;-72
2024/01/19 02:28:37;;;;;;;35.50;20.50;;;;;;;-2.51;85.41;99164.70;104633;1253;138355;-72
2024/01/19 02:31:04;;;;;;;38.10;21.70;;;;;;;-2.49;85.57;99171.85;104602;1254;109321;-72
2024/01/19 02:33:31;;;;;;;37.60;22.80;;;;;;;-2.46;85.66;99176.45;103328;1254;138752;-73
2024/01/19 02:35:58;;;;;;;40.40;23.30;;;;;;;-2.41;86.02;99181.05;103459;1256;96867;-73
2024/01/19 02:38:24;;;;;;;42.50;24.60;;;;;;;-2.33;85.83;99189.93;103434;1257;107086;-72
2024/01/19 02:40:51;;;;;;;38.10;24.20;;;;;;;-2.29;85.77;99191.13;102558;1254;1002611;-72
2024/01/19 02:43:18;;;;;;;44.20;26.00;;;;;;;-2.27;85.46;99188.24;103435;1255;108924;-72
2024/01/19 02:45:45;;;;;;;41.90;25.50;;;;;;;-2.27;85.51;99194.89;103306;1254;138400;-72
2024/01/19 02:48:12;;;;;;;43.20;25.00;;;;;;;-2.30;85.65;99199.82;103415;1257;96325;-72
2024/01/19 02:50:39;;;;;;;40.60;23.80;;;;;;;-2.34;85.46;99201.84;103517;1253;106656;-72
2024/01/19 02:53:07;;;;;;;38.10;22.60;;;;;;;-2.43;85.35;99212.88;103300;1257;138172;-73
2024/01/19 02:55:33;;;;;;;37.50;21.30;;;;;;;-2.49;85.27;99218.81;102747;1254;1002983;-72
2024/01/19 02:58:00;;;;;;;34.00;21.00;;;;;;;-2.56;84.85;99216.23;103431;1251;138748;-71
2024/01/19 03:00:27;;;;;;;37.30;20.00;;;;;;;-2.61;85.07;99220.48;103483;1254;97061;-72
2024/01/19 03:02:54;;;;;;;35.00;20.60;;;;;;;-2.68;85.08;99225.21;103367;1254;108618;-73
2024/01/19 03:05:21;;;;;;;38.10;21.30;;;;;;;-2.71;84.90;99224.33;103355;1254;139557;-72
2024/01/19 03:07:48;;;;;;;39.10;22.20;;;;;;;-2.71;85.32;99233.00;103501;1254;108579;-72
2024/01/19 03:10:15;;;;;;;38.30;23.00;;;;;;;-2.71;85.44;99237.77;103331;1254;137788;-72
2024/01/19 03:12:42;;;;;;;38.60;22.50;;;;;;;-2.74;85.36;99237.24;104817;1251;94535;-73
2024/01/19 03:15:10;;;;;;;39.10;22.30;;;;;;;-2.78;85.35;99238.25;104060;1251;1002735;-73
2024/01/19 03:17:37;;;;;;;42.00;22.90;;;;;;;-2.80;85.78;99236.20;104667;1254;138112;-72
2024/01/19 03:20:05;;;;;;;40.80;23.20;;;;;;;-2.85;85.39;99238.05;103616;1254;109472;-73
2024/01/19 03:22:32;;;;;;;40.50;21.50;;;;;;;-2.92;85.54;99245.82;104667;1254;137491;-73
2024/01/19 03:24:59;;;;;;;36.30;20.10;;;;;;;-2.94;85.70;99250.90;104781;1254;95966;-73
2024/01/19 03:27:25;;;;;;;35.00;20.00;;;;;;;-2.95;86.11;99256.36;104677;1253;138599;-72
2024/01/19 03:29:52;;;;;;;33.90;18.60;;;;;;;-2.93;86.13;99259.08;104788;1254;94839;-73
2024/01/19 03:32:19;;;;;;;30.40;17.40;;;;;;;-2.92;85.85;99259.94;104819;1251;109603;-72
2024/01/19 03:34:46;;;;;;;34.10;19.50;;;;;;;-2.91;85.86;99263.68;104661;1254;138341;-73
2024/01/19 03:37:13;;;;;;;32.90;19.00;;;;;;;-2.92;85.70;99277.12;103806;1253;96621;-72
2024/01/19 03:39:39;;;;;;;38.80;22.50;;;;;;;-2.95;85.66;99279.66;103246;1254;137813;-71
2024/01/19 03:42:06;;;;;;;37.90;22.10;;;;;;;-2.93;85.77;99285.78;103293;1254;96437;-72
2024/01/19 03:44:33;;;;;;;40.80;23.60;;;;;;;-2.90;85.93;99295.33;103457;1254;110513;-73
2024/01/19 03:47:01;;;;;;;46.50;25.30;;;;;;;-2.91;85.63;99295.67;102634;1254;1002624;-72
2024/01/19 03:49:28;;;;;;;53.10;28.50;;;;;;;-2.96;85.62;99303.63;103551;1254;96529;-72
2024/01/19 03:52:03;;;;;;;49.60;27.60;;;;;;;-3.04;85.70;99304.42;103461;1256;138257;-72
2024/01/19 03:54:32;;;;;;;50.60;26.00;;;;;;;-3.13;85.71;99315.06;102766;1256;1003605;-73
2024/01/19 03:57:01;;;;;;;43.90;24.40;;;;;;;-3.15;86.18;99316.93;104846;1254;109653;-72
2024/01/19 03:59:27;;;;;;;48.50;25.20;;;;;;;-3.16;86.11;99319.98;104577;1254;139944;-73
2024/01/19 04:01:55;;;;;;;42.50;23.40;;;;;;;-3.14;85.96;99325.43;104818;1252;94375;-72
2024/01/19 04:04:22;;;;;;;42.20;23.50;;;;;;;-3.12;86.02;99328.52;104646;1252;137551;-73
2024/01/19 04:06:49;;;;;;;43.80;24.00;;;;;;;-3.15;85.66;99329.51;104806;1252;94623;-72
2024/01/19 04:09:16;;;;;;;37.60;21.00;;;;;;;-3.19;85.45;99338.16;104863;1254;110219;-72
2024/01/19 04:11:43;;;;;;;43.40;22.40;;;;;;;-3.22;85.16;99344.08;104700;1254;137127;-72
2024/01/19 04:14:10;;;;;;;40.40;22.00;;;;;;;-3.23;85.23;99355.44;103934;1254;96541;-71
2024/01/19 04:16:37;;;;;;;41.80;21.60;;;;;;;-3.29;85.15;99360.83;102571;1256;1003715;-71
2024/01/19 04:19:05;;;;;;;37.20;20.90;;;;;;;-3.30;85.06;99370.51;103496;1254;96454;-71
2024/01/19 04:21:32;;;;;;;36.40;19.70;;;;;;;-3.36;84.91;99375.39;102046;1253;1004386;-72
2024/01/19 04:23:59;;;;;;;35.50;19.70;;;;;;;-3.41;85.11;99379.94;104793;1254;106918;-72
2024/01/19 04:26:27;;;;;;;34.10;19.20;;;;;;;-3.43;85.32;99384.65;104840;1253;94931;-71
2024/01/19 04:28:54;;;;;;;29.90;17.70;;;;;;;-3.46;85.48;99396.36;104695;1253;138181;-73
2024/01/19 04:31:21;;;;;;;33.00;17.90;;;;;;;-3.47;85.67;99399.41;104837;1253;94448;-72
2024/01/19 04:33:48;;;;;;;30.50;18.60;;;;;;;-3.45;85.56;99404.85;103949;1251;1002224;-71
2024/01/19 04:36:15;;;;;;;32.90;19.10;;;;;;;-3.42;85.66;99408.12;104826;1254;106579;-72
2024/01/19 04:38:42;;;;;;;31.80;19.10;;;;;;;-3.36;85.87;99412.45;104812;1251;94420;-73
2024/01/19 04:41:08;;;;;;;34.00;20.00;;;;;;;-3.32;85.70;99420.98;104738;1251;138354;-72
2024/01/19 04:43:35;;;;;;;33.40;20.30;;;;;;;-3.28;85.95;99420.84;104806;1254;94516;-72
2024/01/19 04:46:02;;;;;;;35.40;19.50;;;;;;;-3.29;85.88;99422.02;104704;1254;137401;-72
2024/01/19 04:48:29;;;;;;;30.00;17.80;;;;;;;-3.29;85.93;99424.24;104824;1253;106925;-72
2024/01/19 04:50:56;;;;;;;29.80;17.00;;;;;;;-3.31;85.77;99416.23;104777;1253;94569;-73
2024/01/19 04:53:23;;;;;;;24.90;14.80;;;;;;;-3.27;85.68;99413.37;103948;1254;1003340;-72
2024/01/19 04:55:50;;;;;;;24.90;14.30;;;;;;;-3.26;85.43;99416.95;104819;1253;94578;-71
2024/01/19 04:58:17;;;;;;;24.70;14.00;;;;;;;-3.28;85.49;99426.12;104688;1254;140041;-72
2024/01/19 05:00:44;;;;;;;22.50;13.30;;;;;;;-3.28;85.36;99427.64;104030;1253;1002772;-72
2024/01/19 05:03:11;;;;;;;21.70;13.10;;;;;;;-3.28;84.99;99423.73;104865;1251;95042;-71
2024/01/19 05:05:38;;;;;;;24.90;14.40;;;;;;;-3.26;85.27;99432.42;104703;1253;137612;-71
2024/01/19 05:08:05;;;;;;;21.70;13.20;;;;;;;-3.23;85.28;99437.73;104107;1253;1002121;-72
2024/01/19 05:10:34;;;;;;;25.90;15.10;;;;;;;-3.22;85.06;99440.98;104734;1254;137719;-71
2024/01/19 05:13:02;;;;;;;26.20;15.00;;;;;;;-3.23;84.69;99438.08;104837;1253;107294;-71
2024/01/19 05:15:29;;;;;;;26.90;16.40;;;;;;;-3.26;84.72;99439.23;104701;1253;137629;-71
2024/01/19 05:17:57;;;;;;;28.40;16.00;;;;;;;-3.30;84.58;99435.62;104018;1252;1002450;-72
2024/01/19 05:20:24;;;;;;;27.90;15.30;;;;;;;-3.34;84.83;99443.23;104811;1253;94492;-71
2024/01/19 05:22:51;;;;;;;28.70;16.30;;;;;;;-3.38;84.80;99442.85;104645;1252;139178;-73
2024/01/19 05:25:18;;;;;;;26.50;15.30;;;;;;;-3.41;84.51;99452.16;104781;1253;106828;-72
2024/01/19 05:27:45;;;;;;;27.00;15.10;;;;;;;-3.41;84.73;99459.64;104673;1253;138468;-72
2024/01/19 05:30:13;;;;;;;26.50;15.90;;;;;;;-3.36;84.99;99465.13;104069;1254;1002447;-71
2024/01/19 05:32:41;;;;;;;27.60;16.20;;;;;;;-3.29;85.19;99462.99;104855;1252;94265;-71
2024/01/19 05:35:09;;;;;;;31.00;17.50;;;;;;;-3.22;85.00;99460.52;104752;1253;137449;-72
2024/01/19 05:37:36;;;;;;;31.40;17.70;;;;;;;-3.13;85.12;99459.42;104802;1254;107551;-70
2024/01/19 05:40:03;;;;;;;32.80;18.50;;;;;;;-3.07;84.89;99460.67;104650;1254;138229;-72
2024/01/19 05:42:30;;;;;;;36.30;19.30;;;;;;;-3.02;85.01;99464.14;104877;1253;107579;-71
2024/01/19 05:44:57;;;;;;;31.50;19.30;;;;;;;-2.98;84.66;99470.30;104804;1253;94450;-71
2024/01/19 05:47:24;;;;;;;32.50;18.80;;;;;;;-3.00;84.55;99472.14;104741;1253;137889;-71
2024/01/19 05:49:51;;;;;;;32.80;18.10;;;;;;;-2.99;84.06;99474.37;104813;1253;106554;-72
2024/01/19 05:52:18;;;;;;;31.10;17.10;;;;;;;-3.03;84.21;99474.33;104703;1253;137842;-71
2024/01/19 05:54:45;;;;;;;29.20;16.00;;;;;;;-3.03;84.12;99481.30;104783;1252;107893;-70
2024/01/19 05:57:13;;;;;;;23.00;13.70;;;;;;;-3.06;83.58;99484.48;104800;1251;94683;-70
2024/01/19 05:59:40;;;;;;;24.40;13.60;;;;;;;-3.08;83.84;99489.05;104688;1251;137707;-70
2024/01/19 06:02:07;;;;;;;25.00;13.50;;;;;;;-3.05;83.52;99491.15;104774;1251;106689;-72
2024/01/19 06:04:38;;;;;;;24.70;14.50;;;;;;;-3.03;83.23;99496.27;104700;1250;137597;-72
2024/01/19 06:07:05;;;;;;;23.70;14.50;;;;;;;-3.00;83.38;99507.36;104822;1253;107826;-71
2024/01/19 06:09:32;;;;;;;25.70;14.40;;;;;;;-2.98;83.60;99509.07;104729;1254;136869;-72
2024/01/19 06:11:59;;;;;;;27.00;15.20;;;;;;;-3.00;83.05;99508.54;104873;1253;109462;-72
2024/01/19 06:14:26;;;;;;;26.50;15.40;;;;;;;-3.05;82.79;99511.55;104843;1252;107137;-71
2024/01/19 06:16:53;;;;;;;27.40;15.00;;;;;;;-3.06;82.74;99511.35;104757;1252;139045;-72
2024/01/19 06:19:20;;;;;;;27.10;15.60;;;;;;;-3.09;82.67;99511.33;104849;1253;107848;-71
2024/01/19 06:21:47;;;;;;;25.30;15.00;;;;;;;-3.12;82.76;99510.95;104700;1253;138887;-71
2024/01/19 06:24:16;;;;;;;23.50;13.60;;;;;;;-3.18;82.17;99511.41;104801;1253;109088;-71
2024/01/19 06:26:46;;;;;;;20.30;12.10;;;;;;;-3.25;82.18;99513.02;104770;1253;107581;-71
2024/01/19 06:29:13;;;;;;;22.00;12.50;;;;;;;-3.31;82.38;99509.21;104781;1251;138660;-71
2024/01/19 06:31:46;;;;;;;23.30;13.40;;;;;;;-3.29;82.68;99509.57;104814;1251;107277;-71
2024/01/19 06:34:13;;;;;;;20.10;12.60;;;;;;;-3.26;82.45;99518.45;103894;1253;138253;-71
2024/01/19 06:36:43;;;;;;;22.40;13.60;;;;;;;-3.23;82.30;99524.27;104712;1253;109680;-71
2024/01/19 06:39:10;;;;;;;21.90;13.70;;;;;;;-3.22;82.34;99527.35;103343;1254;107510;-71
2024/01/19 06:41:41;;;;;;;24.30;13.90;;;;;;;-3.21;82.15;99530.42;103300;1254;138931;-72
2024/01/19 06:44:09;;;;;;;23.70;14.70;;;;;;;-3.16;82.46;99535.23;103382;1254;107696;-71
2024/01/19 06:46:37;;;;;;;22.50;14.00;;;;;;;-3.13;82.62;99539.52;104743;1253;137812;-72
2024/01/19 06:49:04;;;;;;;24.60;15.40;;;;;;;-3.14;82.24;99538.31;104775;1250;110591;-71
2024/01/19 06:51:34;;;;;;;25.00;15.50;;;;;;;-3.16;81.84;99537.45;103648;1255;137862;-70
2024/01/19 06:54:01;;;;;;;23.60;16.30;;;;;;;-3.24;81.62;99541.42;103555;1253;96340;-71
2024/01/19 06:56:28;;;;;;;23.60;14.70;;;;;;;-3.34;81.83;99538.92;102488;1254;1016405;-71
2024/01/19 06:58:55;;;;;;;21.20;14.00;;;;;;;-3.44;81.65;99534.05;103350;1253;138571;-70
2024/01/19 07:01:22;;;;;;;25.20;14.00;;;;;;;-3.49;81.54;99539.23;103420;1253;110488;-70
2024/01/19 07:03:50;;;;;;;24.70;14.20;;;;;;;-3.55;81.82;99544.61;103235;1256;139161;-70
2024/01/19 07:06:17;;;;;;;22.40;14.60;;;;;;;-3.58;81.93;99543.73;103482;1253;96337;-70
2024/01/19 07:08:44;;;;;;;24.20;14.70;;;;;;;-3.57;82.09;99543.56;103528;1256;107361;-71
2024/01/19 07:11:11;;;;;;;26.60;15.40;;;;;;;-3.52;82.06;99546.35;103263;1256;137411;-71
2024/01/19 07:13:38;;;;;;;24.50;15.00;;;;;;;-3.50;81.84;99547.21;103457;1254;109211;-70
2024/01/19 07:16:07;;;;;;;26.40;16.40;;;;;;;-3.50;82.39;99545.36;103238;1252;139105;-71
2024/01/19 07:18:34;;;;;;;25.70;16.40;;;;;;;-3.43;82.23;99550.02;103428;1253;97027;-72
2024/01/19 07:21:02;;;;;;;25.20;16.00;;;;;;;-3.43;81.66;99556.14;103405;1256;106950;-72
2024/01/19 07:23:29;;;;;;;25.90;16.60;;;;;;;-3.36;82.76;99554.04;103280;1251;137466;-72
2024/01/19 07:25:57;;;;;;;30.10;17.10;;;;;;;-3.29;82.29;99557.85;103421;1254;109542;-71
2024/01/19 07:28:24;;;;;;;30.70;17.10;;;;;;;-3.34;81.91;99564.77;103272;1257;138554;-72
2024/01/19 07:30:55;;;;;;;26.70;16.90;;;;;;;-3.40;81.91;99570.98;103359;1254;96437;-72
2024/01/19 07:33:22;;;;;;;26.50;15.80;;;;;;;-3.40;81.83;99575.05;103317;1253;107563;-71
2024/01/19 07:35:58;;;;;;;28.80;16.40;;;;;;;-3.43;81.40;99572.11;102657;1252;1002870;-70
2024/01/19 07:38:25;;;;;;;25.40;16.50;;;;;;;-3.49;81.34;99573.91;102621;1256;1002883;-76
2024/01/19 07:40:52;;;;;;;27.50;16.30;;;;;;;-3.51;81.83;99575.59;103168;1256;140028;-70
2024/01/19 07:43:19;;;;;;;29.90;17.70;;;;;;;-3.45;81.93;99574.63;103361;1254;96443;-72
2024/01/19 07:45:46;;;;;;;26.80;17.40;;;;;;;-3.37;81.66;99580.19;103239;1253;137631;-70
2024/01/19 07:48:13;;;;;;;26.90;15.90;;;;;;;-3.31;81.55;99576.36;103982;1253;94890;-71
2024/01/19 07:50:41;;;;;;;28.50;17.30;;;;;;;-3.30;81.32;99576.02;104823;1253;109163;-70
2024/01/19 07:53:08;;;;;;;25.60;16.70;;;;;;;-3.31;81.47;99577.54;104676;1255;137653;-70
2024/01/19 07:55:35;;;;;;;29.90;18.70;;;;;;;-3.27;81.62;99578.44;104021;1253;1002673;-71
2024/01/19 07:58:02;;;;;;;30.40;18.50;;;;;;;-3.22;81.53;99578.86;104610;1253;137896;-70
2024/01/19 08:00:29;;;;;;;29.20;18.10;;;;;;;-3.17;81.30;99577.55;104699;1253;94831;-70
2024/01/19 08:02:56;;;;;;;30.20;17.80;;;;;;;-3.12;81.14;99580.17;104776;1253;110086;-70
2024/01/19 08:05:23;;;;;;;27.20;16.50;;;;;;;-3.08;81.02;99571.52;103736;1252;1002699;-68
2024/01/19 08:07:52;;;;;;;29.00;16.60;;;;;;;-3.04;80.92;99568.36;104842;1252;94775;-69
2024/01/19 08:10:19;;;;;;;28.10;16.40;;;;;;;-2.96;81.33;99568.80;104684;1252;138447;-71
2024/01/19 08:12:46;;;;;;;26.70;16.70;;;;;;;-2.78;81.75;99570.52;104813;1252;94422;-72
2024/01/19 08:15:13;;;;;;;28.40;17.40;;;;;;;-2.51;81.70;99569.77;104803;1253;110204;-69
2024/01/19 08:17:40;;;;;;;28.00;17.80;;;;;;;-2.21;81.84;99567.48;104679;1252;138377;-69
2024/01/19 08:20:11;;;;;;;30.80;18.40;;;;;;;-1.99;80.88;99564.25;104773;1253;94434;-69
2024/01/19 08:22:38;;;;;;;29.80;18.90;;;;;;;-1.83;80.62;99557.20;104657;1254;138103;-69
2024/01/19 08:25:06;;;;;;;31.60;19.60;;;;;;;-1.63;80.41;99555.27;104832;1252;94234;-69
2024/01/19 08:27:33;;;;;;;29.70;19.20;;;;;;;-1.51;79.94;99556.88;104644;1253;137606;-70
2024/01/19 08:29:59;;;;;;;31.80;19.10;;;;;;;-1.40;79.69;99553.70;104766;1253;107668;-70
2024/01/19 08:32:27;;;;;;;29.00;18.40;;;;;;;-1.30;79.07;99556.30;104855;1253;94565;-69
2024/01/19 08:34:54;;;;;;;31.30;20.00;;;;;;;-1.27;78.72;99560.23;103980;1251;1016196;-72
2024/01/19 08:37:22;;;;;;;33.10;20.00;;;;;;;-1.19;78.51;99561.81;104807;1253;94669;-72
2024/01/19 08:39:53;;;;;;;30.10;18.50;;;;;;;-1.13;78.35;99561.14;104766;1253;138217;-72
2024/01/19 08:42:20;;;;;;;31.30;19.50;;;;;;;-1.03;78.04;99561.36;104823;1253;108390;-72
2024/01/19 08:44:47;;;;;;;29.10;18.60;;;;;;;-0.95;77.99;99561.73;104076;1252;1002483;-72
2024/01/19 08:47:14;;;;;;;29.90;19.50;;;;;;;-0.93;77.48;99564.11;104576;1251;137707;-73
2024/01/19 08:49:43;;;;;;;26.80;17.50;;;;;;;-0.87;77.20;99569.79;104671;1253;96270;-70
2024/01/19 08:52:11;;;;;;;27.20;17.60;;;;;;;-0.77;77.41;99574.05;104509;1252;138313;-71
2024/01/19 08:54:38;;;;;;;31.00;18.10;;;;;;;-0.67;77.22;99577.69;104634;1253;107721;-71
2024/01/19 08:57:07;;;;;;;30.60;18.50;;;;;;;-0.59;76.98;99583.33;104769;1252;96996;-71
2024/01/19 08:59:34;;;;;;;27.10;18.00;;;;;;;-0.50;76.86;99585.58;104749;1252;136557;-72
2024/01/19 09:02:01;;;;;;;30.80;19.40;;;;;;;-0.46;76.53;99584.21;104810;1251;94444;-72
2024/01/19 09:04:28;;;;;;;27.20;18.60;;;;;;;-0.51;75.91;99584.89;104677;1253;136820;-71
2024/01/19 09:06:56;;;;;;;32.30;19.50;;;;;;;-0.58;75.85;99587.77;104831;1251;107589;-71
2024/01/19 09:09:25;;;;;;;30.40;20.20;;;;;;;-0.57;76.04;99584.70;104613;1251;138086;-70
2024/01/19 09:11:52;;;;;;;33.70;20.40;;;;;;;-0.49;75.66;99585.23;104830;1255;106703;-70
2024/01/19 09:14:20;;;;;;;31.00;19.40;;;;;;;-0.47;75.94;99587.29;104778;1252;94648;-70
2024/01/19 09:16:47;;;;;;;28.70;20.00;;;;;;;-0.33;75.98;99589.02;104695;1253;138466;-71
2024/01/19 09:19:14;;;;;;;32.30;21.00;;;;;;;-0.23;75.62;99592.42;103962;1253;1002378;-71
2024/01/19 09:21:44;;;;;;;34.50;20.50;;;;;;;-0.14;75.43;99586.13;104649;1252;139319;-71
2024/01/19 09:24:11;;;;;;;34.30;20.10;;;;;;;-0.03;75.24;99589.88;104689;1253;107644;-71
2024/01/19 09:26:39;;;;;;;31.50;20.90;;;;;;;0.15;75.42;99596.20;103988;1251;1002919;-71
2024/01/19 09:29:08;;;;;;;33.50;20.60;;;;;;;0.34;74.91;99591.05;104673;1251;138017;-70
2024/01/19 09:31:41;;;;;;;29.40;19.40;;;;;;;0.52;74.75;99594.79;104783;1252;106595;-69
2024/01/19 09:34:07;;;;;;;33.20;20.50;;;;;;;0.71;74.57;99597.30;104703;1253;137718;-70
2024/01/19 09:36:34;;;;;;;34.30;21.20;;;;;;;0.97;74.62;99593.80;104829;1252;106800;-70
2024/01/19 09:39:01;;;;;;;32.30;21.00;;;;;;;1.26;74.18;99595.72;104843;1252;94567;-70
2024/01/19 09:41:37;;;;;;;36.00;21.70;;;;;;;1.53;72.94;99601.39;104773;1252;136855;-70
2024/01/19 09:44:09;;;;;;;33.70;21.30;;;;;;;1.85;73.23;99604.78;104019;1252;1003127;-71
2024/01/19 09:46:47;;;;;;;32.30;19.70;;;;;;;2.13;72.46;99607.32;104683;1253;139089;-70
2024/01/19 09:49:34;;;;;;;34.00;20.40;;;;;;;2.37;71.66;99604.19;104732;1253;106983;-70
2024/01/19 09:52:08;;;;;;;33.20;20.50;;;;;;;2.47;69.97;99609.58;104688;1253;138523;-69
2024/01/19 09:54:35;;;;;;;28.50;18.40;;;;;;;2.48;70.41;99614.73;104844;1251;109073;-71
2024/01/19 09:57:03;;;;;;;27.80;18.40;;;;;;;2.79;70.77;99618.35;104763;1252;106802;-70
2024/01/19 09:59:33;;;;;;;30.60;18.90;;;;;;;3.03;69.34;99619.63;104602;1251;139135;-70
2024/01/19 10:02:01;;;;;;;28.80;18.80;;;;;;;3.34;69.30;99625.09;104740;1251;108487;-70
2024/01/19 10:04:29;;;;;;;29.20;18.50;;;;;;;3.86;68.80;99625.58;104696;1252;137620;-70
2024/01/19 10:06:57;;;;;;;33.50;20.90;;;;;;;4.28;68.51;99634.02;103901;1253;111118;-71
2024/01/19 10:09:25;;;;;;;30.90;19.70;;;;;;;4.66;67.23;99630.80;103454;1253;106783;-71
2024/01/19 10:11:54;;;;;;;30.00;19.60;;;;;;;4.79;66.22;99628.83;103452;1253;96456;-71
2024/01/19 10:14:22;;;;;;;31.10;19.30;;;;;;;4.85;64.52;99629.07;103399;1256;107035;-71
2024/01/19 10:16:52;;;;;;;32.50;20.00;;;;;;;4.91;65.23;99639.30;103305;1253;137470;-71
2024/01/19 10:19:20;;;;;;;34.70;21.30;;;;;;;5.04;65.22;99626.98;103448;1254;109329;-86
2024/01/19 10:21:47;;;;;;;31.60;20.00;;;;;;;5.00;63.85;99626.37;103286;1254;136461;-77
2024/01/19 10:24:17;;;;;;;37.00;21.60;;;;;;;4.93;64.44;99622.04;103671;1252;96431;-74
2024/01/19 10:26:46;;;;;;;34.70;20.90;;;;;;;5.03;64.45;99621.33;104738;1251;107904;-73
2024/01/19 10:29:14;;;;;;;32.20;20.20;;;;;;;5.03;63.48;99616.85;104693;1252;138487;-73
2024/01/19 10:31:42;;;;;;;30.10;19.70;;;;;;;4.88;63.05;99616.78;104898;1250;109981;-73
2024/01/19 10:34:18;;;;;;;30.40;20.00;;;;;;;4.69;62.98;99617.13;103910;1252;1003046;-73
2024/01/19 10:36:46;;;;;;;35.00;19.90;;;;;;;4.48;63.38;99619.92;104902;1253;94719;-73
2024/01/19 10:39:20;;;;;;;33.40;20.20;;;;;;;4.41;63.73;99618.84;104810;1253;107006;-73
2024/01/19 10:41:48;;;;;;;32.50;19.00;;;;;;;4.51;63.44;99615.90;104641;1250;137648;-72
2024/01/19 10:44:17;;;;;;;33.60;21.10;;;;;;;4.69;63.83;99612.84;104834;1253;109105;-71
2024/01/19 10:46:44;;;;;;;33.60;20.40;;;;;;;4.85;63.66;99615.48;104709;1253;137725;-70
2024/01/19 10:49:13;;;;;;;31.90;20.10;;;;;;;4.97;63.10;99616.25;104797;1252;94795;-72
2024/01/19 10:51:42;;;;;;;32.00;20.40;;;;;;;5.07;62.67;99615.90;104676;1252;138730;-71
2024/01/19 10:54:15;;;;;;;32.00;20.20;;;;;;;5.13;62.48;99617.49;104796;1253;94339;-72
2024/01/19 10:56:42;;;;;;;32.30;21.60;;;;;;;5.12;62.35;99619.92;104836;1252;108228;-72
2024/01/19 10:59:14;;;;;;;34.20;21.00;;;;;;;5.03;62.08;99612.88;104252;1252;137297;-73
2024/01/19 11:01:42;;;;;;;34.00;21.90;;;;;;;4.88;61.24;99614.02;103876;1253;96556;-74
2024/01/19 11:04:12;;;;;;;35.40;21.10;;;;;;;4.73;61.33;99612.42;104729;1253;137057;-72
2024/01/19 11:06:40;;;;;;;32.50;20.90;;;;;;;4.61;61.29;99611.77;104836;1252;95036;-73